sensor_id;sensor_type;location;lat;lon;timestamp;P1;durP1;ratioP1;P2;durP2;ratioP2
3975;SDS011;2002;48.812;9.180;2023-05-14T00:00:35;3.77;;;3.47;;
3975;SDS011;2002;48.812;9.180;2023-05-14T00:03:00;4.10;;;3.70;;
3975;SDS011;2002;48.812;9.180;2023-05-14T00:05:26;3.77;;;3.47;;
3975;SDS011;2002;48.812;9.180;2023-05-14T00:07:52;4.30;;;3.90;;
3975;SDS011;2002;48.812;9.180;2023-05-14T00:10:17;4.60;;;4.20;;
3975;SDS011;2002;48.812;9.180;2023-05-14T00:12:44;4.00;;;3.60;;
3975;SDS011;2002;48.812;9.180;2023-05-14T00:15:10;3.87;;;3.63;;
3975;SDS011;2002;48.812;9.180;2023-05-14T00:17:35;3.90;;;3.57;;
3975;SDS011;2002;48.812;9.180;2023-05-14T00:20:02;4.10;;;3.80;;
3975;SDS011;2002;48.812;9.180;2023-05-14T00:22:31;5.13;;;4.30;;
3975;SDS011;2002;48.812;9.180;2023-05-14T00:24:57;4.53;;;4.17;;
3975;SDS011;2002;48.812;9.180;2023-05-14T00:27:22;4.57;;;4.17;;
3975;SDS011;2002;48.812;9.180;2023-05-14T00:29:48;3.90;;;3.50;;
3975;SDS011;2002;48.812;9.180;2023-05-14T00:32:13;4.57;;;4.17;;
3975;SDS011;2002;48.812;9.180;2023-05-14T00:34:39;3.87;;;3.57;;
3975;SDS011;2002;48.812;9.180;2023-05-14T00:37:05;3.83;;;3.53;;
3975;SDS011;2002;48.812;9.180;2023-05-14T00:39:30;4.20;;;3.63;;
3975;SDS011;2002;48.812;9.180;2023-05-14T00:41:56;3.70;;;3.40;;
3975;SDS011;2002;48.812;9.180;2023-05-14T00:44:21;3.93;;;3.53;;
3975;SDS011;2002;48.812;9.180;2023-05-14T00:46:47;4.83;;;4.43;;
3975;SDS011;2002;48.812;9.180;2023-05-14T00:49:13;4.80;;;3.97;;
3975;SDS011;2002;48.812;9.180;2023-05-14T00:51:39;3.93;;;3.60;;
3975;SDS011;2002;48.812;9.180;2023-05-14T00:54:06;4.00;;;3.70;;
3975;SDS011;2002;48.812;9.180;2023-05-14T00:56:32;3.87;;;3.53;;
3975;SDS011;2002;48.812;9.180;2023-05-14T00:58:58;4.23;;;3.93;;
3975;SDS011;2002;48.812;9.180;2023-05-14T01:01:24;3.63;;;3.33;;
3975;SDS011;2002;48.812;9.180;2023-05-14T01:03:52;3.70;;;3.40;;
3975;SDS011;2002;48.812;9.180;2023-05-14T01:09:10;3.60;;;3.40;;
3975;SDS011;2002;48.812;9.180;2023-05-14T01:11:54;4.00;;;3.70;;
3975;SDS011;2002;48.812;9.180;2023-05-14T01:17:21;4.60;;;4.00;;
3975;SDS011;2002;48.812;9.180;2023-05-14T01:19:47;3.80;;;3.50;;
3975;SDS011;2002;48.812;9.180;2023-05-14T01:22:15;3.90;;;3.60;;
3975;SDS011;2002;48.812;9.180;2023-05-14T01:24:41;4.30;;;4.00;;
3975;SDS011;2002;48.812;9.180;2023-05-14T01:27:09;3.67;;;3.40;;
3975;SDS011;2002;48.812;9.180;2023-05-14T01:29:42;4.97;;;4.57;;
3975;SDS011;2002;48.812;9.180;2023-05-14T01:32:14;4.03;;;3.63;;
3975;SDS011;2002;48.812;9.180;2023-05-14T01:34:41;4.80;;;4.40;;
3975;SDS011;2002;48.812;9.180;2023-05-14T01:37:09;3.47;;;3.23;;
3975;SDS011;2002;48.812;9.180;2023-05-14T01:39:36;4.33;;;3.93;;
3975;SDS011;2002;48.812;9.180;2023-05-14T01:42:03;3.90;;;3.60;;
3975;SDS011;2002;48.812;9.180;2023-05-14T01:44:30;3.60;;;3.30;;
3975;SDS011;2002;48.812;9.180;2023-05-14T01:46:56;4.03;;;3.73;;
3975;SDS011;2002;48.812;9.180;2023-05-14T01:49:22;4.47;;;4.10;;
3975;SDS011;2002;48.812;9.180;2023-05-14T01:51:48;4.53;;;4.13;;
3975;SDS011;2002;48.812;9.180;2023-05-14T01:54:13;4.37;;;3.57;;
3975;SDS011;2002;48.812;9.180;2023-05-14T01:56:39;3.67;;;3.47;;
3975;SDS011;2002;48.812;9.180;2023-05-14T01:59:04;4.27;;;3.90;;
3975;SDS011;2002;48.812;9.180;2023-05-14T02:01:30;4.00;;;3.70;;
3975;SDS011;2002;48.812;9.180;2023-05-14T02:03:56;3.53;;;3.23;;
3975;SDS011;2002;48.812;9.180;2023-05-14T02:06:21;4.13;;;3.83;;
3975;SDS011;2002;48.812;9.180;2023-05-14T02:08:47;4.87;;;4.47;;
3975;SDS011;2002;48.812;9.180;2023-05-14T02:11:12;3.93;;;3.63;;
3975;SDS011;2002;48.812;9.180;2023-05-14T02:13:38;4.00;;;3.70;;
3975;SDS011;2002;48.812;9.180;2023-05-14T02:16:03;3.93;;;3.57;;
3975;SDS011;2002;48.812;9.180;2023-05-14T02:18:29;4.33;;;3.93;;
3975;SDS011;2002;48.812;9.180;2023-05-14T02:20:55;4.30;;;4.00;;
3975;SDS011;2002;48.812;9.180;2023-05-14T02:23:21;4.63;;;4.30;;
3975;SDS011;2002;48.812;9.180;2023-05-14T02:25:47;4.50;;;4.10;;
3975;SDS011;2002;48.812;9.180;2023-05-14T02:28:12;4.03;;;3.70;;
3975;SDS011;2002;48.812;9.180;2023-05-14T02:30:38;5.40;;;4.50;;
3975;SDS011;2002;48.812;9.180;2023-05-14T02:33:04;3.53;;;3.33;;
3975;SDS011;2002;48.812;9.180;2023-05-14T02:35:29;4.00;;;3.70;;
3975;SDS011;2002;48.812;9.180;2023-05-14T02:37:55;3.73;;;3.43;;
3975;SDS011;2002;48.812;9.180;2023-05-14T02:40:20;4.30;;;4.00;;
3975;SDS011;2002;48.812;9.180;2023-05-14T02:42:46;5.23;;;4.83;;
3975;SDS011;2002;48.812;9.180;2023-05-14T02:45:12;3.67;;;3.47;;
3975;SDS011;2002;48.812;9.180;2023-05-14T02:47:37;3.70;;;3.40;;
3975;SDS011;2002;48.812;9.180;2023-05-14T02:50:03;4.00;;;3.70;;
3975;SDS011;2002;48.812;9.180;2023-05-14T02:52:30;3.53;;;3.30;;
3975;SDS011;2002;48.812;9.180;2023-05-14T02:54:55;4.03;;;3.73;;
3975;SDS011;2002;48.812;9.180;2023-05-14T02:57:21;4.20;;;3.90;;
3975;SDS011;2002;48.812;9.180;2023-05-14T02:59:46;4.03;;;3.73;;
3975;SDS011;2002;48.812;9.180;2023-05-14T03:02:12;4.20;;;3.90;;
3975;SDS011;2002;48.812;9.180;2023-05-14T03:04:37;4.17;;;3.80;;
3975;SDS011;2002;48.812;9.180;2023-05-14T03:07:03;3.33;;;3.10;;
3975;SDS011;2002;48.812;9.180;2023-05-14T03:09:29;4.50;;;4.10;;
3975;SDS011;2002;48.812;9.180;2023-05-14T03:11:55;3.93;;;3.63;;
3975;SDS011;2002;48.812;9.180;2023-05-14T03:14:20;3.60;;;3.40;;
3975;SDS011;2002;48.812;9.180;2023-05-14T03:16:46;3.47;;;3.27;;
3975;SDS011;2002;48.812;9.180;2023-05-14T03:19:11;3.80;;;3.50;;
3975;SDS011;2002;48.812;9.180;2023-05-14T03:21:37;3.10;;;2.90;;
3975;SDS011;2002;48.812;9.180;2023-05-14T03:24:02;3.97;;;3.67;;
3975;SDS011;2002;48.812;9.180;2023-05-14T03:26:28;4.93;;;4.53;;
3975;SDS011;2002;48.812;9.180;2023-05-14T03:28:54;3.80;;;3.50;;
3975;SDS011;2002;48.812;9.180;2023-05-14T03:31:19;3.90;;;3.30;;
3975;SDS011;2002;48.812;9.180;2023-05-14T03:33:45;3.90;;;3.60;;
3975;SDS011;2002;48.812;9.180;2023-05-14T03:36:11;3.13;;;2.93;;
3975;SDS011;2002;48.812;9.180;2023-05-14T03:38:36;3.33;;;2.93;;
3975;SDS011;2002;48.812;9.180;2023-05-14T03:41:03;3.60;;;3.33;;
3975;SDS011;2002;48.812;9.180;2023-05-14T03:43:28;4.00;;;3.70;;
3975;SDS011;2002;48.812;9.180;2023-05-14T03:45:54;3.60;;;3.30;;
3975;SDS011;2002;48.812;9.180;2023-05-14T03:48:19;3.53;;;3.23;;
3975;SDS011;2002;48.812;9.180;2023-05-14T03:50:45;3.60;;;3.40;;
3975;SDS011;2002;48.812;9.180;2023-05-14T03:53:11;3.43;;;3.23;;
3975;SDS011;2002;48.812;9.180;2023-05-14T03:55:36;4.23;;;3.83;;
3975;SDS011;2002;48.812;9.180;2023-05-14T03:58:02;3.27;;;3.07;;
3975;SDS011;2002;48.812;9.180;2023-05-14T04:00:29;3.60;;;3.30;;
3975;SDS011;2002;48.812;9.180;2023-05-14T04:02:55;4.33;;;3.93;;
3975;SDS011;2002;48.812;9.180;2023-05-14T04:05:21;2.90;;;2.70;;
3975;SDS011;2002;48.812;9.180;2023-05-14T04:07:46;5.10;;;3.77;;
3975;SDS011;2002;48.812;9.180;2023-05-14T04:10:12;4.00;;;3.70;;
3975;SDS011;2002;48.812;9.180;2023-05-14T04:12:38;4.47;;;3.67;;
3975;SDS011;2002;48.812;9.180;2023-05-14T04:15:03;3.40;;;3.20;;
3975;SDS011;2002;48.812;9.180;2023-05-14T04:17:30;3.40;;;3.10;;
3975;SDS011;2002;48.812;9.180;2023-05-14T04:19:55;3.23;;;3.03;;
3975;SDS011;2002;48.812;9.180;2023-05-14T04:22:21;3.30;;;2.87;;
3975;SDS011;2002;48.812;9.180;2023-05-14T04:24:46;3.80;;;3.50;;
3975;SDS011;2002;48.812;9.180;2023-05-14T04:27:13;3.57;;;3.27;;
3975;SDS011;2002;48.812;9.180;2023-05-14T04:29:45;3.50;;;3.20;;
3975;SDS011;2002;48.812;9.180;2023-05-14T04:32:11;3.73;;;3.43;;
3975;SDS011;2002;48.812;9.180;2023-05-14T04:34:36;3.20;;;3.00;;
3975;SDS011;2002;48.812;9.180;2023-05-14T04:37:02;3.43;;;3.13;;
3975;SDS011;2002;48.812;9.180;2023-05-14T04:39:28;3.40;;;3.13;;
3975;SDS011;2002;48.812;9.180;2023-05-14T04:41:53;2.97;;;2.77;;
3975;SDS011;2002;48.812;9.180;2023-05-14T04:44:19;3.87;;;3.57;;
3975;SDS011;2002;48.812;9.180;2023-05-14T04:46:44;2.90;;;2.70;;
3975;SDS011;2002;48.812;9.180;2023-05-14T04:49:10;3.30;;;3.03;;
3975;SDS011;2002;48.812;9.180;2023-05-14T04:51:36;3.87;;;3.50;;
3975;SDS011;2002;48.812;9.180;2023-05-14T04:54:01;3.47;;;3.17;;
3975;SDS011;2002;48.812;9.180;2023-05-14T04:56:27;3.73;;;3.43;;
3975;SDS011;2002;48.812;9.180;2023-05-14T04:58:52;4.20;;;3.37;;
3975;SDS011;2002;48.812;9.180;2023-05-14T05:01:18;3.43;;;3.20;;
3975;SDS011;2002;48.812;9.180;2023-05-14T05:03:43;3.40;;;3.20;;
3975;SDS011;2002;48.812;9.180;2023-05-14T05:06:09;3.83;;;3.60;;
3975;SDS011;2002;48.812;9.180;2023-05-14T05:08:35;5.50;;;3.63;;
3975;SDS011;2002;48.812;9.180;2023-05-14T05:11:00;3.00;;;2.70;;
3975;SDS011;2002;48.812;9.180;2023-05-14T05:13:26;3.37;;;3.07;;
3975;SDS011;2002;48.812;9.180;2023-05-14T05:15:52;3.23;;;3.03;;
3975;SDS011;2002;48.812;9.180;2023-05-14T05:18:17;3.77;;;3.47;;
3975;SDS011;2002;48.812;9.180;2023-05-14T05:20:43;2.93;;;2.73;;
3975;SDS011;2002;48.812;9.180;2023-05-14T05:23:08;3.57;;;3.27;;
3975;SDS011;2002;48.812;9.180;2023-05-14T05:25:34;4.97;;;3.60;;
3975;SDS011;2002;48.812;9.180;2023-05-14T05:28:00;3.13;;;2.93;;
3975;SDS011;2002;48.812;9.180;2023-05-14T05:30:25;3.57;;;3.27;;
3975;SDS011;2002;48.812;9.180;2023-05-14T05:32:51;3.20;;;3.00;;
3975;SDS011;2002;48.812;9.180;2023-05-14T05:35:16;3.27;;;3.07;;
3975;SDS011;2002;48.812;9.180;2023-05-14T05:37:42;3.10;;;2.90;;
3975;SDS011;2002;48.812;9.180;2023-05-14T05:40:09;3.43;;;3.20;;
3975;SDS011;2002;48.812;9.180;2023-05-14T05:42:35;3.77;;;3.47;;
3975;SDS011;2002;48.812;9.180;2023-05-14T05:45:00;3.23;;;3.03;;
3975;SDS011;2002;48.812;9.180;2023-05-14T05:47:26;3.53;;;3.23;;
3975;SDS011;2002;48.812;9.180;2023-05-14T05:49:51;3.40;;;3.20;;
3975;SDS011;2002;48.812;9.180;2023-05-14T05:52:18;3.00;;;2.80;;
3975;SDS011;2002;48.812;9.180;2023-05-14T05:54:43;3.90;;;3.20;;
3975;SDS011;2002;48.812;9.180;2023-05-14T05:57:09;3.53;;;3.23;;
3975;SDS011;2002;48.812;9.180;2023-05-14T05:59:35;3.37;;;3.07;;
3975;SDS011;2002;48.812;9.180;2023-05-14T06:02:00;3.57;;;3.27;;
3975;SDS011;2002;48.812;9.180;2023-05-14T06:04:26;3.27;;;3.00;;
3975;SDS011;2002;48.812;9.180;2023-05-14T06:06:51;3.73;;;3.43;;
3975;SDS011;2002;48.812;9.180;2023-05-14T06:09:17;3.40;;;3.10;;
3975;SDS011;2002;48.812;9.180;2023-05-14T06:11:43;3.67;;;3.37;;
3975;SDS011;2002;48.812;9.180;2023-05-14T06:14:08;3.30;;;3.10;;
3975;SDS011;2002;48.812;9.180;2023-05-14T06:16:34;3.37;;;3.07;;
3975;SDS011;2002;48.812;9.180;2023-05-14T06:18:59;3.97;;;3.67;;
3975;SDS011;2002;48.812;9.180;2023-05-14T06:21:25;3.50;;;3.23;;
3975;SDS011;2002;48.812;9.180;2023-05-14T06:23:51;3.53;;;3.23;;
3975;SDS011;2002;48.812;9.180;2023-05-14T06:26:17;3.60;;;3.30;;
3975;SDS011;2002;48.812;9.180;2023-05-14T06:28:42;4.20;;;3.90;;
3975;SDS011;2002;48.812;9.180;2023-05-14T06:31:08;3.57;;;3.27;;
3975;SDS011;2002;48.812;9.180;2023-05-14T06:33:34;4.40;;;3.23;;
3975;SDS011;2002;48.812;9.180;2023-05-14T06:36:02;3.27;;;3.07;;
3975;SDS011;2002;48.812;9.180;2023-05-14T06:38:29;3.60;;;3.30;;
3975;SDS011;2002;48.812;9.180;2023-05-14T06:40:55;3.47;;;3.17;;
3975;SDS011;2002;48.812;9.180;2023-05-14T06:43:20;3.30;;;3.00;;
3975;SDS011;2002;48.812;9.180;2023-05-14T06:45:49;3.50;;;3.30;;
3975;SDS011;2002;48.812;9.180;2023-05-14T06:48:16;3.87;;;3.57;;
3975;SDS011;2002;48.812;9.180;2023-05-14T06:50:45;3.80;;;3.50;;
3975;SDS011;2002;48.812;9.180;2023-05-14T06:53:12;5.90;;;3.30;;
3975;SDS011;2002;48.812;9.180;2023-05-14T06:55:38;3.50;;;3.20;;
3975;SDS011;2002;48.812;9.180;2023-05-14T06:58:07;4.23;;;3.40;;
3975;SDS011;2002;48.812;9.180;2023-05-14T07:00:32;3.50;;;3.20;;
3975;SDS011;2002;48.812;9.180;2023-05-14T07:02:58;3.17;;;2.97;;
3975;SDS011;2002;48.812;9.180;2023-05-14T07:05:24;3.47;;;3.20;;
3975;SDS011;2002;48.812;9.180;2023-05-14T07:07:50;3.20;;;2.90;;
3975;SDS011;2002;48.812;9.180;2023-05-14T07:10:15;3.43;;;3.13;;
3975;SDS011;2002;48.812;9.180;2023-05-14T07:12:41;3.73;;;3.43;;
3975;SDS011;2002;48.812;9.180;2023-05-14T07:15:07;3.67;;;3.37;;
3975;SDS011;2002;48.812;9.180;2023-05-14T07:17:33;4.30;;;3.90;;
3975;SDS011;2002;48.812;9.180;2023-05-14T07:19:58;4.00;;;3.70;;
3975;SDS011;2002;48.812;9.180;2023-05-14T07:22:24;3.50;;;3.20;;
3975;SDS011;2002;48.812;9.180;2023-05-14T07:24:49;4.10;;;3.80;;
3975;SDS011;2002;48.812;9.180;2023-05-14T07:27:15;3.30;;;3.10;;
3975;SDS011;2002;48.812;9.180;2023-05-14T07:29:41;3.90;;;3.60;;
3975;SDS011;2002;48.812;9.180;2023-05-14T07:32:07;4.67;;;4.27;;
3975;SDS011;2002;48.812;9.180;2023-05-14T07:34:33;3.80;;;3.50;;
3975;SDS011;2002;48.812;9.180;2023-05-14T07:36:58;3.70;;;3.40;;
3975;SDS011;2002;48.812;9.180;2023-05-14T07:39:24;3.70;;;3.40;;
3975;SDS011;2002;48.812;9.180;2023-05-14T07:41:50;3.87;;;3.57;;
3975;SDS011;2002;48.812;9.180;2023-05-14T07:44:15;3.60;;;3.30;;
3975;SDS011;2002;48.812;9.180;2023-05-14T07:46:41;3.50;;;3.20;;
3975;SDS011;2002;48.812;9.180;2023-05-14T07:49:07;3.70;;;3.40;;
3975;SDS011;2002;48.812;9.180;2023-05-14T07:51:32;3.50;;;3.20;;
3975;SDS011;2002;48.812;9.180;2023-05-14T07:53:58;4.20;;;3.90;;
3975;SDS011;2002;48.812;9.180;2023-05-14T07:56:23;3.50;;;3.20;;
3975;SDS011;2002;48.812;9.180;2023-05-14T07:58:49;3.73;;;3.43;;
3975;SDS011;2002;48.812;9.180;2023-05-14T08:01:15;3.50;;;3.20;;
3975;SDS011;2002;48.812;9.180;2023-05-14T08:03:41;3.63;;;3.33;;
3975;SDS011;2002;48.812;9.180;2023-05-14T08:06:07;3.70;;;3.40;;
3975;SDS011;2002;48.812;9.180;2023-05-14T08:08:32;2.90;;;2.70;;
3975;SDS011;2002;48.812;9.180;2023-05-14T08:10:58;3.00;;;2.80;;
3975;SDS011;2002;48.812;9.180;2023-05-14T08:13:24;3.27;;;2.97;;
3975;SDS011;2002;48.812;9.180;2023-05-14T08:15:49;3.80;;;3.50;;
3975;SDS011;2002;48.812;9.180;2023-05-14T08:18:15;3.80;;;3.50;;
3975;SDS011;2002;48.812;9.180;2023-05-14T08:20:40;3.50;;;3.20;;
3975;SDS011;2002;48.812;9.180;2023-05-14T08:23:06;3.97;;;3.57;;
3975;SDS011;2002;48.812;9.180;2023-05-14T08:25:33;3.10;;;2.90;;
3975;SDS011;2002;48.812;9.180;2023-05-14T08:27:58;3.93;;;3.63;;
3975;SDS011;2002;48.812;9.180;2023-05-14T08:30:25;3.73;;;3.40;;
3975;SDS011;2002;48.812;9.180;2023-05-14T08:32:51;3.70;;;3.40;;
3975;SDS011;2002;48.812;9.180;2023-05-14T08:35:17;3.40;;;3.10;;
3975;SDS011;2002;48.812;9.180;2023-05-14T08:37:43;3.63;;;3.33;;
3975;SDS011;2002;48.812;9.180;2023-05-14T08:40:08;3.30;;;3.00;;
3975;SDS011;2002;48.812;9.180;2023-05-14T08:42:34;3.50;;;3.20;;
3975;SDS011;2002;48.812;9.180;2023-05-14T08:45:07;3.67;;;3.37;;
3975;SDS011;2002;48.812;9.180;2023-05-14T08:47:49;3.60;;;3.30;;
3975;SDS011;2002;48.812;9.180;2023-05-14T08:50:15;3.73;;;3.40;;
3975;SDS011;2002;48.812;9.180;2023-05-14T08:52:42;3.97;;;3.50;;
3975;SDS011;2002;48.812;9.180;2023-05-14T08:55:08;3.97;;;3.23;;
3975;SDS011;2002;48.812;9.180;2023-05-14T08:57:35;3.00;;;2.80;;
3975;SDS011;2002;48.812;9.180;2023-05-14T09:00:02;4.27;;;3.90;;
3975;SDS011;2002;48.812;9.180;2023-05-14T09:02:38;3.77;;;3.47;;
3975;SDS011;2002;48.812;9.180;2023-05-14T09:05:04;3.80;;;3.50;;
3975;SDS011;2002;48.812;9.180;2023-05-14T09:07:31;3.77;;;3.50;;
3975;SDS011;2002;48.812;9.180;2023-05-14T09:09:57;3.63;;;3.33;;
3975;SDS011;2002;48.812;9.180;2023-05-14T09:12:23;3.77;;;3.47;;
3975;SDS011;2002;48.812;9.180;2023-05-14T09:14:49;3.77;;;3.23;;
3975;SDS011;2002;48.812;9.180;2023-05-14T09:17:16;4.00;;;3.47;;
3975;SDS011;2002;48.812;9.180;2023-05-14T09:19:42;4.87;;;4.47;;
3975;SDS011;2002;48.812;9.180;2023-05-14T09:22:12;4.80;;;4.40;;
3975;SDS011;2002;48.812;9.180;2023-05-14T09:24:38;5.27;;;4.73;;
3975;SDS011;2002;48.812;9.180;2023-05-14T09:27:05;4.10;;;3.80;;
3975;SDS011;2002;48.812;9.180;2023-05-14T09:29:32;4.27;;;3.77;;
3975;SDS011;2002;48.812;9.180;2023-05-14T09:31:58;4.13;;;3.83;;
3975;SDS011;2002;48.812;9.180;2023-05-14T09:34:29;4.10;;;3.70;;
3975;SDS011;2002;48.812;9.180;2023-05-14T09:37:00;3.77;;;3.47;;
3975;SDS011;2002;48.812;9.180;2023-05-14T09:39:28;4.73;;;4.33;;
3975;SDS011;2002;48.812;9.180;2023-05-14T09:41:54;3.93;;;3.63;;
3975;SDS011;2002;48.812;9.180;2023-05-14T09:44:20;4.47;;;4.13;;
3975;SDS011;2002;48.812;9.180;2023-05-14T09:46:47;3.80;;;3.50;;
3975;SDS011;2002;48.812;9.180;2023-05-14T09:49:13;3.97;;;3.67;;
3975;SDS011;2002;48.812;9.180;2023-05-14T09:51:38;3.67;;;3.37;;
3975;SDS011;2002;48.812;9.180;2023-05-14T09:54:05;4.50;;;4.10;;
3975;SDS011;2002;48.812;9.180;2023-05-14T09:56:31;4.13;;;3.83;;
3975;SDS011;2002;48.812;9.180;2023-05-14T09:58:57;4.30;;;3.50;;
3975;SDS011;2002;48.812;9.180;2023-05-14T10:01:24;3.90;;;3.60;;
3975;SDS011;2002;48.812;9.180;2023-05-14T10:03:51;4.73;;;4.00;;
3975;SDS011;2002;48.812;9.180;2023-05-14T10:06:17;4.43;;;4.07;;
3975;SDS011;2002;48.812;9.180;2023-05-14T10:08:47;4.70;;;4.30;;
3975;SDS011;2002;48.812;9.180;2023-05-14T10:11:21;4.00;;;3.70;;
3975;SDS011;2002;48.812;9.180;2023-05-14T10:16:42;4.70;;;4.30;;
3975;SDS011;2002;48.812;9.180;2023-05-14T10:19:14;4.50;;;4.10;;
3975;SDS011;2002;48.812;9.180;2023-05-14T10:21:43;4.50;;;4.10;;
3975;SDS011;2002;48.812;9.180;2023-05-14T10:24:12;4.77;;;4.37;;
3975;SDS011;2002;48.812;9.180;2023-05-14T10:26:39;4.53;;;4.13;;
3975;SDS011;2002;48.812;9.180;2023-05-14T10:29:05;4.93;;;3.63;;
3975;SDS011;2002;48.812;9.180;2023-05-14T10:34:32;5.30;;;4.80;;
3975;SDS011;2002;48.812;9.180;2023-05-14T10:37:02;4.47;;;4.07;;
3975;SDS011;2002;48.812;9.180;2023-05-14T10:42:18;4.57;;;4.17;;
3975;SDS011;2002;48.812;9.180;2023-05-14T10:47:39;4.40;;;4.10;;
3975;SDS011;2002;48.812;9.180;2023-05-14T10:50:08;4.73;;;4.33;;
3975;SDS011;2002;48.812;9.180;2023-05-14T10:52:35;4.23;;;3.93;;
3975;SDS011;2002;48.812;9.180;2023-05-14T10:55:01;5.00;;;4.60;;
3975;SDS011;2002;48.812;9.180;2023-05-14T10:57:31;3.90;;;3.60;;
3975;SDS011;2002;48.812;9.180;2023-05-14T10:59:59;5.37;;;4.67;;
3975;SDS011;2002;48.812;9.180;2023-05-14T11:02:26;4.87;;;4.47;;
3975;SDS011;2002;48.812;9.180;2023-05-14T11:05:12;5.50;;;5.03;;
3975;SDS011;2002;48.812;9.180;2023-05-14T11:07:41;4.17;;;3.87;;
3975;SDS011;2002;48.812;9.180;2023-05-14T11:10:09;4.60;;;4.30;;
3975;SDS011;2002;48.812;9.180;2023-05-14T11:12:37;4.77;;;4.37;;
3975;SDS011;2002;48.812;9.180;2023-05-14T11:15:05;4.90;;;4.50;;
3975;SDS011;2002;48.812;9.180;2023-05-14T11:17:36;5.17;;;4.60;;
3975;SDS011;2002;48.812;9.180;2023-05-14T11:20:04;5.07;;;4.57;;
3975;SDS011;2002;48.812;9.180;2023-05-14T11:22:31;5.00;;;4.60;;
3975;SDS011;2002;48.812;9.180;2023-05-14T11:24:57;4.47;;;4.17;;
3975;SDS011;2002;48.812;9.180;2023-05-14T11:27:22;4.07;;;3.77;;
3975;SDS011;2002;48.812;9.180;2023-05-14T11:29:48;4.50;;;4.10;;
3975;SDS011;2002;48.812;9.180;2023-05-14T11:32:15;4.10;;;3.80;;
3975;SDS011;2002;48.812;9.180;2023-05-14T11:34:41;4.23;;;3.90;;
3975;SDS011;2002;48.812;9.180;2023-05-14T11:37:11;4.30;;;3.90;;
3975;SDS011;2002;48.812;9.180;2023-05-14T11:39:53;5.33;;;4.93;;
3975;SDS011;2002;48.812;9.180;2023-05-14T11:42:19;4.63;;;4.23;;
3975;SDS011;2002;48.812;9.180;2023-05-14T11:44:46;4.97;;;4.47;;
3975;SDS011;2002;48.812;9.180;2023-05-14T11:47:13;4.40;;;4.00;;
3975;SDS011;2002;48.812;9.180;2023-05-14T11:49:39;4.93;;;4.53;;
3975;SDS011;2002;48.812;9.180;2023-05-14T11:52:06;4.63;;;4.23;;
3975;SDS011;2002;48.812;9.180;2023-05-14T11:54:38;4.83;;;4.37;;
3975;SDS011;2002;48.812;9.180;2023-05-14T11:57:08;4.97;;;4.57;;
3975;SDS011;2002;48.812;9.180;2023-05-14T11:59:38;5.70;;;5.17;;
3975;SDS011;2002;48.812;9.180;2023-05-14T12:02:04;4.97;;;4.57;;
3975;SDS011;2002;48.812;9.180;2023-05-14T12:04:32;4.73;;;4.27;;
3975;SDS011;2002;48.812;9.180;2023-05-14T12:06:59;4.80;;;4.40;;
3975;SDS011;2002;48.812;9.180;2023-05-14T12:09:34;4.77;;;4.30;;
3975;SDS011;2002;48.812;9.180;2023-05-14T12:12:07;4.87;;;4.47;;
3975;SDS011;2002;48.812;9.180;2023-05-14T12:14:37;5.30;;;4.90;;
3975;SDS011;2002;48.812;9.180;2023-05-14T12:17:10;5.50;;;5.10;;
3975;SDS011;2002;48.812;9.180;2023-05-14T12:19:38;5.23;;;4.83;;
3975;SDS011;2002;48.812;9.180;2023-05-14T12:22:06;5.07;;;4.57;;
3975;SDS011;2002;48.812;9.180;2023-05-14T12:24:32;5.17;;;4.77;;
3975;SDS011;2002;48.812;9.180;2023-05-14T12:26:59;5.70;;;5.20;;
3975;SDS011;2002;48.812;9.180;2023-05-14T12:29:26;4.70;;;4.30;;
3975;SDS011;2002;48.812;9.180;2023-05-14T12:31:51;4.87;;;4.40;;
3975;SDS011;2002;48.812;9.180;2023-05-14T12:34:17;5.43;;;4.90;;
3975;SDS011;2002;48.812;9.180;2023-05-14T12:36:43;5.20;;;4.80;;
3975;SDS011;2002;48.812;9.180;2023-05-14T12:39:09;6.23;;;5.73;;
3975;SDS011;2002;48.812;9.180;2023-05-14T12:41:36;6.00;;;5.40;;
3975;SDS011;2002;48.812;9.180;2023-05-14T12:44:04;5.80;;;5.30;;
3975;SDS011;2002;48.812;9.180;2023-05-14T12:46:30;6.80;;;6.20;;
3975;SDS011;2002;48.812;9.180;2023-05-14T12:48:56;6.70;;;6.03;;
3975;SDS011;2002;48.812;9.180;2023-05-14T12:51:22;5.97;;;5.37;;
3975;SDS011;2002;48.812;9.180;2023-05-14T12:53:48;5.20;;;4.80;;
3975;SDS011;2002;48.812;9.180;2023-05-14T12:56:16;6.77;;;6.07;;
3975;SDS011;2002;48.812;9.180;2023-05-14T12:58:42;6.27;;;5.70;;
3975;SDS011;2002;48.812;9.180;2023-05-14T13:01:07;5.50;;;5.00;;
3975;SDS011;2002;48.812;9.180;2023-05-14T13:03:33;5.50;;;5.00;;
3975;SDS011;2002;48.812;9.180;2023-05-14T13:05:58;6.60;;;6.00;;
3975;SDS011;2002;48.812;9.180;2023-05-14T13:08:25;6.20;;;5.70;;
3975;SDS011;2002;48.812;9.180;2023-05-14T13:10:51;5.90;;;5.40;;
3975;SDS011;2002;48.812;9.180;2023-05-14T13:13:17;5.90;;;5.40;;
3975;SDS011;2002;48.812;9.180;2023-05-14T13:15:43;5.50;;;5.00;;
3975;SDS011;2002;48.812;9.180;2023-05-14T13:18:10;4.83;;;4.43;;
3975;SDS011;2002;48.812;9.180;2023-05-14T13:20:36;6.33;;;5.73;;
3975;SDS011;2002;48.812;9.180;2023-05-14T13:23:02;5.63;;;5.13;;
3975;SDS011;2002;48.812;9.180;2023-05-14T13:25:27;5.53;;;5.13;;
3975;SDS011;2002;48.812;9.180;2023-05-14T13:27:53;6.57;;;5.97;;
3975;SDS011;2002;48.812;9.180;2023-05-14T13:30:19;5.50;;;5.00;;
3975;SDS011;2002;48.812;9.180;2023-05-14T13:32:45;6.37;;;5.77;;
3975;SDS011;2002;48.812;9.180;2023-05-14T13:35:11;5.47;;;4.97;;
3975;SDS011;2002;48.812;9.180;2023-05-14T13:37:36;5.20;;;4.80;;
3975;SDS011;2002;48.812;9.180;2023-05-14T13:40:02;5.50;;;5.00;;
3975;SDS011;2002;48.812;9.180;2023-05-14T13:42:29;5.73;;;5.23;;
3975;SDS011;2002;48.812;9.180;2023-05-14T13:44:56;6.97;;;5.73;;
3975;SDS011;2002;48.812;9.180;2023-05-14T13:47:22;6.83;;;6.23;;
3975;SDS011;2002;48.812;9.180;2023-05-14T13:49:49;5.87;;;5.37;;
3975;SDS011;2002;48.812;9.180;2023-05-14T13:52:15;6.23;;;5.63;;
3975;SDS011;2002;48.812;9.180;2023-05-14T13:54:41;5.20;;;4.70;;
3975;SDS011;2002;48.812;9.180;2023-05-14T13:57:06;6.23;;;5.67;;
3975;SDS011;2002;48.812;9.180;2023-05-14T13:59:32;5.83;;;5.43;;
3975;SDS011;2002;48.812;9.180;2023-05-14T14:01:57;6.27;;;5.70;;
3975;SDS011;2002;48.812;9.180;2023-05-14T14:04:23;6.60;;;5.80;;
3975;SDS011;2002;48.812;9.180;2023-05-14T14:06:52;4.60;;;4.20;;
3975;SDS011;2002;48.812;9.180;2023-05-14T14:09:21;5.77;;;5.23;;
3975;SDS011;2002;48.812;9.180;2023-05-14T14:11:46;5.90;;;5.43;;
3975;SDS011;2002;48.812;9.180;2023-05-14T14:14:12;6.27;;;5.67;;
3975;SDS011;2002;48.812;9.180;2023-05-14T14:16:38;5.50;;;5.00;;
3975;SDS011;2002;48.812;9.180;2023-05-14T14:19:04;5.73;;;5.23;;
3975;SDS011;2002;48.812;9.180;2023-05-14T14:21:30;5.80;;;5.30;;
3975;SDS011;2002;48.812;9.180;2023-05-14T14:23:56;6.10;;;5.50;;
3975;SDS011;2002;48.812;9.180;2023-05-14T14:26:22;5.80;;;5.30;;
3975;SDS011;2002;48.812;9.180;2023-05-14T14:28:47;5.67;;;5.17;;
3975;SDS011;2002;48.812;9.180;2023-05-14T14:31:13;6.23;;;5.73;;
3975;SDS011;2002;48.812;9.180;2023-05-14T14:33:40;5.40;;;5.00;;
3975;SDS011;2002;48.812;9.180;2023-05-14T14:36:06;6.30;;;5.77;;
3975;SDS011;2002;48.812;9.180;2023-05-14T14:38:33;6.00;;;5.43;;
3975;SDS011;2002;48.812;9.180;2023-05-14T14:40:58;6.50;;;5.90;;
3975;SDS011;2002;48.812;9.180;2023-05-14T14:43:26;6.27;;;5.67;;
3975;SDS011;2002;48.812;9.180;2023-05-14T14:45:52;5.63;;;5.13;;
3975;SDS011;2002;48.812;9.180;2023-05-14T14:48:21;6.00;;;5.40;;
3975;SDS011;2002;48.812;9.180;2023-05-14T14:51:03;4.97;;;4.57;;
3975;SDS011;2002;48.812;9.180;2023-05-14T14:53:32;5.30;;;4.80;;
3975;SDS011;2002;48.812;9.180;2023-05-14T14:55:58;4.47;;;4.07;;
3975;SDS011;2002;48.812;9.180;2023-05-14T14:58:25;4.80;;;4.40;;
3975;SDS011;2002;48.812;9.180;2023-05-14T15:00:52;4.63;;;4.23;;
3975;SDS011;2002;48.812;9.180;2023-05-14T15:03:18;5.00;;;4.53;;
3975;SDS011;2002;48.812;9.180;2023-05-14T15:05:45;5.47;;;4.97;;
3975;SDS011;2002;48.812;9.180;2023-05-14T15:08:11;4.93;;;4.53;;
3975;SDS011;2002;48.812;9.180;2023-05-14T15:10:37;5.17;;;4.77;;
3975;SDS011;2002;48.812;9.180;2023-05-14T15:13:03;5.23;;;4.83;;
3975;SDS011;2002;48.812;9.180;2023-05-14T15:15:31;4.73;;;4.30;;
3975;SDS011;2002;48.812;9.180;2023-05-14T15:18:00;4.97;;;4.57;;
3975;SDS011;2002;48.812;9.180;2023-05-14T15:20:26;5.07;;;4.57;;
3975;SDS011;2002;48.812;9.180;2023-05-14T15:22:52;4.83;;;4.43;;
3975;SDS011;2002;48.812;9.180;2023-05-14T15:25:18;4.70;;;4.30;;
3975;SDS011;2002;48.812;9.180;2023-05-14T15:27:45;4.03;;;3.63;;